createdAt,value
2023-01-22T00:00:35.936Z,11.95
2023-01-22T00:03:02.716Z,11.90
2023-01-22T00:05:29.501Z,12.32
2023-01-22T00:07:56.343Z,11.73
2023-01-22T00:10:23.102Z,11.70
2023-01-22T00:12:49.852Z,10.55
2023-01-22T00:15:16.659Z,11.55
2023-01-22T00:17:43.419Z,12.20
2023-01-22T00:20:11.492Z,10.98
2023-01-22T00:22:38.255Z,10.75
2023-01-22T00:25:05.555Z,12.65
2023-01-22T00:27:32.288Z,11.10
2023-01-22T00:29:59.099Z,11.68
2023-01-22T00:32:25.847Z,12.07
2023-01-22T00:34:54.956Z,10.85
2023-01-22T00:37:21.807Z,11.27
2023-01-22T00:39:48.587Z,11.70
2023-01-22T00:42:15.417Z,11.65
2023-01-22T00:44:42.243Z,11.70
2023-01-22T00:47:09.109Z,11.43
2023-01-22T00:49:35.902Z,11.07
2023-01-22T00:52:02.708Z,11.73
2023-01-22T00:54:31.027Z,12.50
2023-01-22T00:56:57.871Z,10.57
2023-01-22T00:59:24.757Z,13.60
2023-01-22T01:01:51.598Z,12.30
2023-01-22T01:04:18.467Z,12.70
2023-01-22T01:06:45.307Z,12.10
2023-01-22T01:09:12.161Z,11.35
2023-01-22T01:11:38.966Z,12.73
2023-01-22T01:14:05.983Z,12.48
2023-01-22T01:16:32.971Z,12.60
2023-01-22T01:19:04.519Z,11.82
2023-01-22T01:21:32.061Z,11.43
2023-01-22T01:23:59.806Z,12.38
2023-01-22T01:26:27.142Z,12.55
2023-01-22T01:28:53.976Z,12.30
2023-01-22T01:31:23.173Z,11.63
2023-01-22T01:33:50.303Z,12.43
2023-01-22T01:36:35.346Z,12.07
2023-01-22T01:39:07.281Z,11.63
2023-01-22T01:41:34.073Z,13.05
2023-01-22T01:44:13.691Z,12.48
2023-01-22T01:46:48.030Z,11.60
2023-01-22T01:49:28.239Z,12.52
2023-01-22T01:51:58.451Z,11.90
2023-01-22T01:54:26.489Z,12.13
2023-01-22T01:57:00.474Z,13.65
2023-01-22T01:59:27.912Z,12.15
2023-01-22T02:01:55.787Z,12.20
2023-01-22T02:04:23.958Z,12.60
2023-01-22T02:06:50.756Z,12.70
2023-01-22T02:09:17.593Z,14.20
2023-01-22T02:11:44.546Z,12.57
2023-01-22T02:14:16.738Z,13.07
2023-01-22T02:16:44.033Z,12.35
2023-01-22T02:19:10.973Z,12.52
2023-01-22T02:21:40.719Z,12.82
2023-01-22T02:24:16.285Z,13.73
2023-01-22T02:26:44.949Z,12.35
2023-01-22T02:29:13.653Z,13.13
2023-01-22T02:31:41.966Z,14.25
2023-01-22T02:34:09.928Z,12.77
2023-01-22T02:36:38.636Z,13.85
2023-01-22T02:39:06.134Z,13.13
2023-01-22T02:41:33.461Z,12.55
2023-01-22T02:44:00.529Z,14.13
2023-01-22T02:46:27.430Z,13.65
2023-01-22T02:48:54.484Z,12.77
2023-01-22T02:51:21.588Z,13.85
2023-01-22T02:53:48.402Z,14.38
2023-01-22T02:56:15.186Z,14.20
2023-01-22T02:58:41.961Z,12.98
2023-01-22T03:01:19.025Z,12.95
2023-01-22T03:03:51.751Z,13.85
2023-01-22T03:06:21.949Z,13.82
2023-01-22T03:08:49.795Z,12.52
2023-01-22T03:11:16.701Z,13.10
2023-01-22T03:14:02.395Z,12.95
2023-01-22T03:16:47.896Z,13.15
2023-01-22T03:19:33.480Z,13.63
2023-01-22T03:22:00.231Z,14.07
2023-01-22T03:24:27.148Z,13.10
2023-01-22T03:26:54.004Z,13.15
2023-01-22T03:29:21.367Z,14.00
2023-01-22T03:31:48.708Z,14.40
2023-01-22T03:34:17.850Z,13.48
2023-01-22T03:36:45.467Z,14.40
2023-01-22T03:39:12.741Z,13.68
2023-01-22T03:41:39.604Z,14.70
2023-01-22T03:44:09.278Z,12.52
2023-01-22T03:46:36.041Z,13.30
2023-01-22T03:49:02.847Z,14.93
2023-01-22T03:51:29.615Z,13.85
2023-01-22T03:53:56.450Z,14.23
2023-01-22T03:56:23.980Z,12.15
2023-01-22T03:58:51.719Z,13.07
2023-01-22T04:01:24.204Z,11.90
2023-01-22T04:03:51.807Z,13.10
2023-01-22T04:06:19.814Z,13.25
2023-01-22T04:08:48.033Z,14.15
2023-01-22T04:11:14.841Z,13.00
2023-01-22T04:13:43.532Z,12.75
2023-01-22T04:16:11.748Z,13.45
2023-01-22T04:18:38.705Z,13.15
2023-01-22T04:21:05.910Z,14.38
2023-01-22T04:23:32.988Z,13.90
2023-01-22T04:25:59.846Z,12.25
2023-01-22T04:28:26.626Z,14.18
2023-01-22T04:30:54.950Z,12.75
2023-01-22T04:33:21.954Z,13.35
2023-01-22T04:35:52.906Z,13.90
2023-01-22T04:38:19.961Z,13.77
2023-01-22T04:40:47.068Z,13.55
2023-01-22T04:43:13.839Z,12.85
2023-01-22T04:45:40.637Z,13.85
2023-01-22T04:48:08.604Z,12.35
2023-01-22T04:50:35.587Z,13.15
2023-01-22T04:53:02.616Z,13.73
2023-01-22T04:55:29.943Z,13.82
2023-01-22T04:57:58.571Z,13.40
2023-01-22T05:00:26.112Z,13.77
2023-01-22T05:03:00.446Z,13.93
2023-01-22T05:05:28.746Z,12.70
2023-01-22T05:07:55.844Z,13.27
2023-01-22T05:10:22.830Z,14.73
2023-01-22T05:12:50.135Z,13.02
2023-01-22T05:15:23.993Z,12.75
2023-01-22T05:17:51.993Z,14.43
2023-01-22T05:20:19.106Z,13.38
2023-01-22T05:22:46.198Z,13.68
2023-01-22T05:25:13.433Z,13.30
2023-01-22T05:27:40.205Z,14.23
2023-01-22T05:30:09.469Z,13.70
2023-01-22T05:32:36.635Z,14.50
2023-01-22T05:35:04.400Z,13.63
2023-01-22T05:37:32.300Z,13.57
2023-01-22T05:39:59.122Z,14.00
2023-01-22T05:42:25.955Z,13.40
2023-01-22T05:44:52.740Z,14.85
2023-01-22T05:47:19.663Z,13.50
2023-01-22T05:49:46.485Z,13.68
2023-01-22T05:52:13.303Z,14.05
2023-01-22T05:54:40.138Z,14.02
2023-01-22T05:57:07.837Z,14.00
2023-01-22T05:59:34.721Z,15.55
2023-01-22T06:02:01.884Z,14.63
2023-01-22T06:04:29.142Z,14.05
2023-01-22T06:06:56.289Z,14.88
2023-01-22T06:09:23.610Z,13.43
2023-01-22T06:11:50.492Z,14.10
2023-01-22T06:14:17.335Z,13.75
2023-01-22T06:16:44.151Z,13.73
2023-01-22T06:19:11.336Z,14.00
2023-01-22T06:21:38.220Z,13.55
2023-01-22T06:24:05.218Z,13.45
2023-01-22T06:26:32.121Z,13.57
2023-01-22T06:28:58.909Z,14.80
2023-01-22T06:31:25.904Z,11.52
2023-01-22T06:33:53.720Z,12.50
2023-01-22T06:36:20.594Z,9.75
2023-01-22T06:38:47.377Z,11.40
2023-01-22T06:41:14.199Z,12.70
2023-01-22T06:43:40.936Z,12.07
2023-01-22T06:46:07.804Z,12.68
2023-01-22T06:48:34.610Z,12.73
2023-01-22T06:51:01.511Z,11.90
2023-01-22T06:53:28.469Z,12.10
2023-01-22T06:55:55.628Z,11.20
2023-01-22T06:58:22.621Z,11.65
2023-01-22T07:00:49.391Z,11.02
2023-01-22T07:03:16.231Z,12.07
2023-01-22T07:05:43.102Z,12.30
2023-01-22T07:08:14.780Z,12.68
2023-01-22T07:10:41.985Z,11.73
2023-01-22T07:13:10.302Z,12.65
2023-01-22T07:15:37.382Z,11.73
2023-01-22T07:18:04.229Z,12.68
2023-01-22T07:20:31.259Z,12.18
2023-01-22T07:23:00.256Z,12.80
2023-01-22T07:25:27.867Z,12.68
2023-01-22T07:28:02.079Z,11.93
2023-01-22T07:30:29.616Z,12.93
2023-01-22T07:33:01.335Z,13.18
2023-01-22T07:35:28.677Z,11.75
2023-01-22T07:37:58.670Z,12.15
2023-01-22T07:40:25.964Z,11.40
2023-01-22T07:42:53.695Z,12.27
2023-01-22T07:45:21.095Z,12.48
2023-01-22T07:47:56.131Z,12.82
2023-01-22T07:50:28.242Z,12.70
2023-01-22T07:52:56.009Z,12.15
2023-01-22T07:55:23.306Z,12.73
2023-01-22T07:57:58.461Z,11.57
2023-01-22T08:00:25.423Z,12.63
2023-01-22T08:02:52.582Z,11.73
2023-01-22T08:05:19.373Z,12.02
2023-01-22T08:07:46.145Z,12.75
2023-01-22T08:10:15.124Z,11.98
2023-01-22T08:12:46.167Z,12.95
2023-01-22T08:15:13.687Z,12.55
2023-01-22T08:17:40.786Z,12.55
2023-01-22T08:20:09.283Z,13.88
2023-01-22T08:22:36.167Z,12.52
2023-01-22T08:25:02.963Z,13.23
2023-01-22T08:27:29.751Z,13.35
2023-01-22T08:29:56.548Z,12.85
2023-01-22T08:32:23.533Z,13.40
2023-01-22T08:34:54.156Z,13.40
2023-01-22T08:37:22.200Z,12.65
2023-01-22T08:39:49.465Z,12.38
2023-01-22T08:42:16.628Z,11.80
2023-01-22T08:44:43.508Z,12.15
2023-01-22T08:47:11.621Z,11.68
2023-01-22T08:49:38.597Z,12.82
2023-01-22T08:52:05.802Z,11.15
2023-01-22T08:54:32.595Z,11.60
2023-01-22T08:56:59.428Z,12.07
2023-01-22T08:59:26.216Z,11.88
2023-01-22T09:01:53.189Z,12.80
2023-01-22T09:04:20.021Z,11.82
2023-01-22T09:06:46.973Z,10.50
2023-01-22T09:09:13.901Z,12.25
2023-01-22T09:11:40.934Z,12.13
2023-01-22T09:14:09.833Z,12.60
2023-01-22T09:16:37.043Z,13.48
2023-01-22T09:19:04.810Z,13.55
2023-01-22T09:21:33.997Z,15.13
2023-01-22T09:24:00.984Z,13.15
2023-01-22T09:26:27.752Z,12.95
2023-01-22T09:28:54.562Z,14.20
2023-01-22T09:31:21.487Z,15.05
2023-01-22T09:33:48.334Z,14.95
2023-01-22T09:36:16.492Z,14.45
2023-01-22T09:38:44.067Z,14.18
2023-01-22T09:41:31.996Z,13.10
2023-01-22T09:44:24.641Z,13.93
2023-01-22T09:47:04.616Z,14.80
2023-01-22T09:49:58.780Z,13.55
2023-01-22T09:52:29.819Z,14.40
2023-01-22T09:54:56.735Z,13.00
2023-01-22T09:57:31.584Z,13.13
2023-01-22T09:59:59.392Z,13.15
2023-01-22T10:02:42.589Z,13.55
2023-01-22T10:05:14.996Z,13.02
2023-01-22T10:07:47.067Z,12.38
2023-01-22T10:10:20.119Z,11.57
2023-01-22T10:13:08.108Z,11.98
2023-01-22T10:15:34.949Z,12.43
2023-01-22T10:18:08.677Z,12.52
2023-01-22T10:20:35.766Z,12.73
2023-01-22T10:23:16.543Z,12.70
2023-01-22T10:25:43.350Z,13.52
2023-01-22T10:28:11.463Z,13.30
2023-01-22T10:30:50.112Z,12.80
2023-01-22T10:33:21.053Z,12.90
2023-01-22T10:35:50.895Z,13.20
2023-01-22T10:38:28.677Z,13.10
2023-01-22T10:40:58.402Z,13.68
2023-01-22T10:43:36.841Z,13.85
2023-01-22T10:46:18.147Z,12.82
2023-01-22T10:48:44.953Z,13.43
2023-01-22T10:51:17.609Z,12.98
2023-01-22T10:53:53.871Z,11.55
2023-01-22T10:56:37.155Z,11.57
2023-01-22T10:59:33.683Z,10.48
2023-01-22T11:02:16.757Z,11.20
2023-01-22T11:04:43.675Z,11.55
2023-01-22T11:07:28.836Z,10.23
2023-01-22T11:10:09.100Z,10.30
2023-01-22T11:12:41.136Z,10.10
2023-01-22T11:15:29.058Z,9.20
2023-01-22T11:18:02.009Z,7.93
2023-01-22T11:20:54.407Z,8.27
2023-01-22T11:23:43.936Z,8.13
2023-01-22T11:26:51.072Z,8.18
2023-01-22T11:29:34.759Z,7.72
2023-01-22T11:32:39.248Z,7.30
2023-01-22T11:35:27.192Z,8.07
2023-01-22T11:38:28.937Z,6.80
2023-01-22T11:41:01.041Z,6.90
2023-01-22T11:43:58.848Z,7.70
2023-01-22T11:46:46.964Z,7.80
2023-01-22T11:49:38.469Z,7.55
2023-01-22T11:52:31.037Z,6.90
2023-01-22T11:55:07.065Z,7.28
2023-01-22T11:57:46.205Z,7.72
2023-01-22T12:00:50.359Z,7.93
2023-01-22T12:03:23.005Z,8.20
2023-01-22T12:06:32.835Z,7.90
2023-01-22T12:09:09.153Z,8.20
2023-01-22T12:11:52.128Z,8.70
2023-01-22T12:14:49.974Z,8.35
2023-01-22T12:17:37.376Z,7.95
2023-01-22T12:20:08.316Z,8.65
2023-01-22T12:23:01.178Z,7.70
2023-01-22T12:25:53.031Z,7.50
2023-01-22T12:28:40.322Z,8.15
2023-01-22T12:31:28.130Z,9.57
2023-01-22T12:33:54.965Z,7.80
2023-01-22T12:36:24.345Z,8.40
2023-01-22T12:39:02.699Z,8.40
2023-01-22T12:42:19.691Z,8.85
2023-01-22T12:44:57.951Z,7.80
2023-01-22T12:47:42.165Z,7.35
2023-01-22T12:50:24.260Z,8.15
2023-01-22T12:53:02.618Z,7.47
2023-01-22T12:55:37.916Z,8.63
2023-01-22T12:58:18.182Z,8.68
2023-01-22T13:00:45.051Z,8.65
2023-01-22T13:03:32.780Z,8.57
2023-01-22T13:06:02.187Z,8.75
2023-01-22T13:08:43.095Z,8.25
2023-01-22T13:11:14.536Z,7.43
2023-01-22T13:13:49.597Z,7.28
2023-01-22T13:16:16.405Z,7.57
2023-01-22T13:18:52.220Z,7.45
2023-01-22T13:21:26.015Z,8.77
2023-01-22T13:24:05.540Z,8.32
2023-01-22T13:26:35.491Z,8.88
2023-01-22T13:29:27.333Z,7.75
2023-01-22T13:31:59.085Z,7.40
2023-01-22T13:34:27.097Z,8.00
2023-01-22T13:36:53.921Z,8.68
2023-01-22T13:39:22.048Z,8.40
2023-01-22T13:41:51.885Z,8.23
2023-01-22T13:44:24.631Z,8.15
2023-01-22T13:46:52.235Z,9.32
2023-01-22T13:49:25.254Z,8.75
2023-01-22T13:51:52.688Z,9.27
2023-01-22T13:54:32.118Z,8.48
2023-01-22T13:56:58.926Z,9.15
2023-01-22T13:59:35.042Z,8.75
2023-01-22T14:02:21.967Z,8.68
2023-01-22T14:04:49.496Z,7.93
2023-01-22T14:07:37.946Z,9.15
2023-01-22T14:10:12.943Z,7.90
2023-01-22T14:12:39.751Z,8.57
2023-01-22T14:15:15.653Z,8.52
2023-01-22T14:17:42.513Z,8.63
2023-01-22T14:20:10.176Z,9.55
2023-01-22T14:22:37.017Z,9.70
2023-01-22T14:25:04.178Z,9.45
2023-01-22T14:27:44.645Z,9.57
2023-01-22T14:30:14.693Z,10.05
2023-01-22T14:32:42.491Z,9.93
2023-01-22T14:35:20.581Z,9.02
2023-01-22T14:37:48.100Z,9.98
2023-01-22T14:40:17.005Z,9.75
2023-01-22T14:42:43.951Z,9.98
2023-01-22T14:45:11.684Z,8.88
2023-01-22T14:47:38.605Z,9.18
2023-01-22T14:50:06.695Z,9.30
2023-01-22T14:52:33.697Z,9.77
2023-01-22T14:55:00.529Z,9.10
2023-01-22T14:57:27.368Z,8.55
2023-01-22T14:59:54.194Z,8.98
2023-01-22T15:02:21.343Z,8.93
2023-01-22T15:04:48.276Z,9.10
2023-01-22T15:07:15.112Z,8.73
2023-01-22T15:09:41.860Z,9.15
2023-01-22T15:12:08.621Z,9.18
2023-01-22T15:14:35.411Z,9.13
2023-01-22T15:17:02.188Z,9.63
2023-01-22T15:19:36.312Z,8.60
2023-01-22T15:22:07.499Z,9.60
2023-01-22T15:24:34.318Z,8.73
2023-01-22T15:27:01.083Z,9.75
2023-01-22T15:29:27.890Z,9.65
2023-01-22T15:31:54.780Z,10.57
2023-01-22T15:34:21.724Z,9.88
2023-01-22T15:36:48.504Z,9.98
2023-01-22T15:39:15.569Z,9.95
2023-01-22T15:41:43.576Z,10.90
2023-01-22T15:44:13.112Z,11.35
2023-01-22T15:46:41.773Z,11.07
2023-01-22T15:49:10.292Z,11.27
2023-01-22T15:51:37.292Z,11.43
2023-01-22T15:54:06.806Z,10.95
2023-01-22T15:56:38.228Z,11.45
2023-01-22T15:59:05.751Z,11.35
2023-01-22T16:01:32.596Z,11.63
2023-01-22T16:04:01.064Z,10.10
2023-01-22T16:06:30.332Z,11.25
2023-01-22T16:08:59.001Z,11.55
2023-01-22T16:11:27.313Z,11.30
2023-01-22T16:13:54.193Z,13.05
2023-01-22T16:16:25.607Z,14.15
2023-01-22T16:18:53.340Z,13.60
2023-01-22T16:21:21.919Z,13.63
2023-01-22T16:23:52.227Z,12.30
2023-01-22T16:26:21.516Z,12.88
2023-01-22T16:28:50.430Z,12.85
2023-01-22T16:31:20.114Z,11.68
2023-01-22T16:33:49.879Z,12.13
2023-01-22T16:36:18.174Z,13.27
2023-01-22T16:38:45.632Z,12.80
2023-01-22T16:41:22.422Z,11.90
2023-01-22T16:43:53.476Z,12.90
2023-01-22T16:46:22.171Z,12.15
2023-01-22T16:48:49.138Z,11.70
2023-01-22T16:51:23.430Z,11.77
2023-01-22T16:53:51.519Z,11.23
2023-01-22T16:56:18.307Z,12.57
2023-01-22T16:58:45.145Z,12.00
2023-01-22T17:01:14.012Z,12.05
2023-01-22T17:03:41.976Z,11.30
2023-01-22T17:06:22.565Z,12.38
2023-01-22T17:08:49.982Z,10.82
2023-01-22T17:11:17.766Z,12.13
2023-01-22T17:13:45.061Z,11.23
2023-01-22T17:16:12.232Z,11.45
2023-01-22T17:18:39.829Z,11.45
2023-01-22T17:21:07.972Z,12.35
2023-01-22T17:23:35.138Z,11.32
2023-01-22T17:26:06.867Z,11.82
2023-01-22T17:28:35.591Z,12.55
2023-01-22T17:31:09.149Z,12.73
2023-01-22T17:33:36.633Z,13.27
2023-01-22T17:36:05.910Z,13.13
2023-01-22T17:38:37.609Z,13.52
2023-01-22T17:41:08.571Z,13.73
2023-01-22T17:43:36.704Z,12.40
2023-01-22T17:46:08.616Z,13.48
2023-01-22T17:48:36.679Z,12.55
2023-01-22T17:51:06.203Z,12.70
2023-01-22T17:53:36.531Z,12.43
2023-01-22T17:56:10.983Z,11.93
2023-01-22T17:58:40.190Z,12.30
2023-01-22T18:01:08.690Z,13.30
2023-01-22T18:03:36.397Z,14.60
2023-01-22T18:06:04.262Z,13.05
2023-01-22T18:08:32.776Z,13.77
2023-01-22T18:11:04.217Z,13.45
2023-01-22T18:13:30.987Z,14.38
2023-01-22T18:15:58.055Z,14.85
2023-01-22T18:18:24.865Z,13.55
2023-01-22T18:20:51.740Z,14.63
2023-01-22T18:23:18.602Z,15.05
2023-01-22T18:25:49.913Z,14.55
2023-01-22T18:28:18.252Z,15.13
2023-01-22T18:30:46.819Z,15.10
2023-01-22T18:33:14.965Z,14.18
2023-01-22T18:35:43.147Z,14.95
2023-01-22T18:38:10.265Z,15.40
2023-01-22T18:40:37.350Z,16.35
2023-01-22T18:43:11.728Z,15.70
2023-01-22T18:45:42.973Z,14.73
2023-01-22T18:48:14.235Z,15.40
2023-01-22T18:50:41.796Z,16.25
2023-01-22T18:53:09.641Z,16.23
2023-01-22T18:55:36.824Z,15.43
2023-01-22T18:58:08.587Z,15.30
2023-01-22T19:00:37.403Z,15.40
2023-01-22T19:03:04.481Z,15.60
2023-01-22T19:05:31.357Z,15.23
2023-01-22T19:07:58.227Z,15.52
2023-01-22T19:10:25.088Z,15.38
2023-01-22T19:12:51.935Z,14.48
2023-01-22T19:15:19.006Z,16.23
2023-01-22T19:17:45.949Z,14.15
2023-01-22T19:20:15.220Z,14.60
2023-01-22T19:22:42.418Z,15.40
2023-01-22T19:25:10.861Z,15.38
2023-01-22T19:27:37.727Z,15.80
2023-01-22T19:30:05.752Z,15.40
2023-01-22T19:32:35.082Z,15.77
2023-01-22T19:35:02.159Z,15.60
2023-01-22T19:37:29.727Z,15.68
2023-01-22T19:39:59.604Z,16.52
2023-01-22T19:42:26.523Z,16.00
2023-01-22T19:44:53.429Z,18.75
2023-01-22T19:47:21.073Z,17.33
2023-01-22T19:49:47.832Z,15.95
2023-01-22T19:52:14.715Z,17.27
2023-01-22T19:54:47.313Z,16.52
2023-01-22T19:57:15.237Z,16.30
2023-01-22T19:59:42.707Z,16.95
2023-01-22T20:02:14.261Z,17.50
2023-01-22T20:04:41.393Z,17.10
2023-01-22T20:07:08.337Z,17.52
2023-01-22T20:09:36.950Z,17.50
2023-01-22T20:12:05.626Z,17.00
2023-01-22T20:14:35.434Z,17.63
2023-01-22T20:17:02.967Z,17.50
2023-01-22T20:19:30.366Z,17.02
2023-01-22T20:21:57.390Z,18.25
2023-01-22T20:24:24.223Z,16.60
2023-01-22T20:26:54.383Z,18.13
2023-01-22T20:29:21.249Z,16.60
2023-01-22T20:31:52.422Z,17.65
2023-01-22T20:34:19.755Z,19.67
2023-01-22T20:36:46.902Z,18.30
2023-01-22T20:39:14.173Z,18.73
2023-01-22T20:41:40.950Z,17.95
2023-01-22T20:44:09.108Z,17.80
2023-01-22T20:46:37.542Z,18.20
2023-01-22T20:49:04.495Z,16.52
2023-01-22T20:51:31.506Z,17.60
2023-01-22T20:53:58.372Z,18.25
2023-01-22T20:56:31.596Z,18.45
2023-01-22T20:59:07.641Z,17.95
2023-01-22T21:01:34.593Z,18.35
2023-01-22T21:04:01.851Z,18.20
2023-01-22T21:06:30.998Z,17.38
2023-01-22T21:08:59.106Z,17.25
2023-01-22T21:11:28.355Z,18.52
2023-01-22T21:13:56.856Z,18.05
2023-01-22T21:16:26.968Z,17.98
2023-01-22T21:18:56.391Z,18.73
2023-01-22T21:21:23.992Z,18.45
2023-01-22T21:23:52.800Z,18.75
2023-01-22T21:26:22.974Z,18.27
2023-01-22T21:28:51.208Z,17.50
2023-01-22T21:31:19.703Z,19.77
2023-01-22T21:33:48.684Z,16.80
2023-01-22T21:36:18.367Z,18.08
2023-01-22T21:38:48.353Z,20.23
2023-01-22T21:41:19.602Z,18.15
2023-01-22T21:44:06.088Z,18.42
2023-01-22T21:46:37.844Z,17.90
2023-01-22T21:49:24.413Z,17.10
2023-01-22T21:51:56.892Z,18.00
2023-01-22T21:54:25.310Z,17.48
2023-01-22T21:56:52.961Z,17.58
2023-01-22T21:59:20.257Z,17.77
2023-01-22T22:01:47.183Z,18.15
2023-01-22T22:04:15.073Z,18.00
2023-01-22T22:06:42.339Z,17.10
2023-01-22T22:09:23.655Z,18.10
2023-01-22T22:11:50.757Z,19.02
2023-01-22T22:14:21.991Z,18.15
2023-01-22T22:16:49.324Z,17.77
2023-01-22T22:19:17.502Z,16.98
2023-01-22T22:21:44.960Z,17.45
2023-01-22T22:24:12.823Z,16.80
2023-01-22T22:26:40.210Z,17.73
2023-01-22T22:29:07.884Z,18.02
2023-01-22T22:31:35.538Z,18.20
2023-01-22T22:34:02.369Z,17.05
2023-01-22T22:36:30.900Z,16.83
2023-01-22T22:38:59.366Z,16.73
2023-01-22T22:41:28.443Z,16.88
2023-01-22T22:43:56.026Z,16.27
2023-01-22T22:46:28.936Z,18.02
2023-01-22T22:48:57.519Z,17.98
2023-01-22T22:51:26.879Z,18.15
2023-01-22T22:53:56.584Z,17.63
2023-01-22T22:56:24.140Z,16.92
2023-01-22T22:58:51.257Z,18.00
2023-01-22T23:01:20.736Z,18.40
2023-01-22T23:03:48.203Z,17.33
2023-01-22T23:06:18.502Z,17.95
2023-01-22T23:08:52.187Z,16.90
2023-01-22T23:11:21.609Z,17.58
2023-01-22T23:13:49.879Z,17.15
2023-01-22T23:16:19.046Z,18.52
2023-01-22T23:18:47.487Z,18.10
2023-01-22T23:21:17.905Z,18.58
2023-01-22T23:23:45.446Z,17.98
2023-01-22T23:26:19.683Z,17.33
2023-01-22T23:28:47.681Z,17.75
2023-01-22T23:31:16.667Z,17.65
2023-01-22T23:33:44.260Z,17.52
2023-01-22T23:36:13.534Z,17.88
2023-01-22T23:38:40.823Z,16.38
2023-01-22T23:41:10.200Z,18.58
2023-01-22T23:43:36.951Z,16.15
2023-01-22T23:46:22.343Z,16.80
2023-01-22T23:48:49.859Z,18.23
2023-01-22T23:51:17.914Z,16.30
2023-01-22T23:53:47.594Z,17.48
2023-01-22T23:56:15.475Z,18.70
2023-01-22T23:58:42.453Z,19.23
